Argyle, Texas
Current Conditions -  °F | °C
As of 8:53 PM on Friday 21 Nov 2014 (Local Time) from KDTO Reporting Station
Haze Haze  
Wind Chill: 18°   Ceiling: 700
Heat Index: 18°   Visibility: 6mi
Dew Point: 17°   Wind: 16mph
Humidity: 93%   Direction: 160°SSE
Pressure: 30.07"   Gusts: NA
Location:  33.12°N, 97.18°W
Report Text: KDTO 220253Z 16014KT 6SM BR OVC007 18/17 A3007 RMK AO2 SLP177 T01780167 51011
Loading
Personal Weather Stations






























Interactive Weather Map New forecast layout! Learn more

10-Day Weather Forecast

Advertisements
Track Severe Weather on mobile